Time;durP1;ratioP1;P1;durP2;ratioP2;P2;SDS_P1;SDS_P2;PMS_P1;PMS_P2;Temp;Humidity;BMP_temperature;BMP_pressure;BME280_temperature;BME280_humidity;BME280_pressure;Samples;Min_cycle;Max_cycle;Signal;HPM_P1;HPM_P2
2023/09/12 00:00:11;;;;;;;65.68;26.50;;;;;;;;;;5056781;28;20077;-70
2023/09/12 00:02:36;;;;;;;63.10;24.88;;;;;;;;;;5073418;28;20394;-70
2023/09/12 00:05:03;;;;;;;61.53;25.77;;;;;;;;;;5074678;28;20023;-70
2023/09/12 00:07:29;;;;;;;67.75;26.50;;;;;;;;;;5074569;28;20478;-70
2023/09/12 00:09:54;;;;;;;64.60;27.20;;;;;;;;;;5073798;28;20158;-70
2023/09/12 00:12:22;;;;;;;68.40;25.77;;;;;;;;;;5074398;28;20028;-70
2023/09/12 00:14:47;;;;;;;67.43;29.08;;;;;;;;;;5073244;28;20032;-70
2023/09/12 00:17:13;;;;;;;65.43;28.42;;;;;;;;;;5056514;28;20032;-70
2023/09/12 00:19:38;;;;;;;65.90;25.70;;;;;;;;;;5072918;28;20052;-70
2023/09/12 00:22:03;;;;;;;74.95;27.88;;;;;;;;;;5072589;28;20031;-70
2023/09/12 00:24:29;;;;;;;68.18;30.17;;;;;;;;;;5073299;28;20474;-70
2023/09/12 00:26:54;;;;;;;67.82;28.10;;;;;;;;;;5056632;28;20397;-70
2023/09/12 00:29:19;;;;;;;58.30;24.10;;;;;;;;;;5074010;28;20397;-70
2023/09/12 00:31:44;;;;;;;61.63;27.35;;;;;;;;;;5064128;28;20045;-70
2023/09/12 00:34:10;;;;;;;52.70;25.27;;;;;;;;;;5059981;28;20040;-70
2023/09/12 00:36:37;;;;;;;66.43;26.92;;;;;;;;;;5071180;28;20035;-70
2023/09/12 00:39:03;;;;;;;67.32;29.23;;;;;;;;;;5057555;28;20025;-71
2023/09/12 00:41:28;;;;;;;65.97;26.15;;;;;;;;;;5071754;28;20024;-70
2023/09/12 00:43:53;;;;;;;63.22;25.25;;;;;;;;;;5072054;28;20016;-70
2023/09/12 00:46:19;;;;;;;66.47;30.08;;;;;;;;;;5073690;28;20024;-71
2023/09/12 00:48:46;;;;;;;70.43;29.17;;;;;;;;;;5072735;28;20036;-70
2023/09/12 00:51:13;;;;;;;62.67;26.95;;;;;;;;;;5072177;28;20028;-70
2023/09/12 00:53:38;;;;;;;62.65;28.38;;;;;;;;;;5072549;28;20028;-70
2023/09/12 00:56:03;;;;;;;70.38;29.33;;;;;;;;;;5072162;28;20040;-70
2023/09/12 00:58:29;;;;;;;64.65;28.92;;;;;;;;;;5073208;28;20031;-71
2023/09/12 01:00:55;;;;;;;63.60;28.80;;;;;;;;;;5072251;28;20115;-70
2023/09/12 01:03:20;;;;;;;55.50;24.75;;;;;;;;;;5072300;28;20028;-70
2023/09/12 01:05:46;;;;;;;68.53;27.08;;;;;;;;;;5072183;28;20028;-71
2023/09/12 01:08:11;;;;;;;64.47;26.85;;;;;;;;;;5073497;28;20020;-70
2023/09/12 01:10:37;;;;;;;60.38;25.35;;;;;;;;;;5057019;28;20509;-70
2023/09/12 01:13:03;;;;;;;64.68;26.95;;;;;;;;;;5053579;28;20395;-70
2023/09/12 01:15:28;;;;;;;63.63;27.50;;;;;;;;;;5055569;28;20483;-70
2023/09/12 01:17:53;;;;;;;46.80;22.80;;;;;;;;;;5061349;28;20111;-71
2023/09/12 01:20:31;;;;;;;54.65;25.02;;;;;;;;;;5073139;28;20047;-70
2023/09/12 01:23:10;;;;;;;61.13;26.83;;;;;;;;;;5072321;28;20020;-69
2023/09/12 01:25:38;;;;;;;55.85;24.48;;;;;;;;;;5072190;28;20028;-70
2023/09/12 01:28:05;;;;;;;64.43;26.67;;;;;;;;;;5073650;28;20382;-70
2023/09/12 01:30:33;;;;;;;63.78;28.48;;;;;;;;;;5072016;28;20024;-70
2023/09/12 01:32:59;;;;;;;60.72;23.10;;;;;;;;;;5072078;28;20070;-70
2023/09/12 01:35:24;;;;;;;61.78;28.95;;;;;;;;;;5073191;28;20024;-70
2023/09/12 01:37:49;;;;;;;66.03;28.23;;;;;;;;;;5073508;28;20031;-70
2023/09/12 01:40:16;;;;;;;50.15;22.20;;;;;;;;;;5072542;28;20025;-70
2023/09/12 01:42:45;;;;;;;46.08;20.45;;;;;;;;;;5073327;28;20028;-70
2023/09/12 01:45:13;;;;;;;36.47;18.48;;;;;;;;;;5072087;28;20474;-70
2023/09/12 01:47:39;;;;;;;48.53;21.65;;;;;;;;;;5072014;28;20020;-70
2023/09/12 01:50:05;;;;;;;45.42;21.88;;;;;;;;;;5072388;28;20016;-70
2023/09/12 01:52:31;;;;;;;38.97;17.65;;;;;;;;;;5073853;28;20035;-70
2023/09/12 01:54:57;;;;;;;33.72;17.15;;;;;;;;;;5076161;28;20025;-69
2023/09/12 01:57:23;;;;;;;31.30;15.63;;;;;;;;;;5076354;28;20020;-70
2023/09/12 01:59:49;;;;;;;41.80;19.27;;;;;;;;;;5075802;28;20432;-69
2023/09/12 02:02:18;;;;;;;36.95;18.95;;;;;;;;;;5075725;28;20024;-70
2023/09/12 02:04:52;;;;;;;32.40;15.93;;;;;;;;;;5075805;28;20021;-70
2023/09/12 02:07:18;;;;;;;28.02;16.48;;;;;;;;;;5059001;28;20478;-70
2023/09/12 02:09:43;;;;;;;36.28;16.83;;;;;;;;;;5076782;28;20044;-70
2023/09/12 02:12:08;;;;;;;34.70;18.83;;;;;;;;;;5076603;28;20177;-70
2023/09/12 02:14:34;;;;;;;31.60;15.25;;;;;;;;;;5076111;28;20493;-70
2023/09/12 02:16:59;;;;;;;38.70;18.13;;;;;;;;;;5075902;28;20074;-69
2023/09/12 02:19:24;;;;;;;45.53;21.08;;;;;;;;;;5076706;28;20028;-69
2023/09/12 02:21:49;;;;;;;32.08;15.55;;;;;;;;;;5076564;28;20016;-69
2023/09/12 02:24:15;;;;;;;35.40;17.27;;;;;;;;;;5076347;28;20470;-70
2023/09/12 02:26:41;;;;;;;39.22;19.13;;;;;;;;;;5076500;28;20024;-70
2023/09/12 02:29:07;;;;;;;52.88;22.58;;;;;;;;;;5076731;28;20063;-70
2023/09/12 02:31:32;;;;;;;41.35;19.05;;;;;;;;;;5075128;28;20039;-69
2023/09/12 02:33:57;;;;;;;41.47;19.02;;;;;;;;;;5058548;28;20025;-70
2023/09/12 02:36:23;;;;;;;38.75;19.40;;;;;;;;;;5076667;28;20501;-70
2023/09/12 02:38:48;;;;;;;36.20;17.98;;;;;;;;;;5075957;28;20078;-70
2023/09/12 02:41:13;;;;;;;49.28;21.60;;;;;;;;;;5076256;28;20028;-70
2023/09/12 02:43:38;;;;;;;48.65;21.40;;;;;;;;;;5076331;28;20078;-69
2023/09/12 02:46:04;;;;;;;54.50;25.88;;;;;;;;;;5076128;28;20031;-71
2023/09/12 02:48:29;;;;;;;42.28;21.38;;;;;;;;;;5068276;28;20037;-70
2023/09/12 02:50:55;;;;;;;42.65;19.85;;;;;;;;;;5064057;28;20029;-71
2023/09/12 02:53:20;;;;;;;49.22;22.17;;;;;;;;;;5055440;28;20470;-69
2023/09/12 02:55:45;;;;;;;49.88;24.90;;;;;;;;;;5055361;28;20036;-70
2023/09/12 02:58:10;;;;;;;45.33;20.92;;;;;;;;;;5056410;28;20021;-70
2023/09/12 03:00:40;;;;;;;42.90;18.25;;;;;;;;;;5054961;28;20371;-70
2023/09/12 03:03:06;;;;;;;55.30;22.50;;;;;;;;;;5064162;28;20039;-70
2023/09/12 03:05:31;;;;;;;49.55;24.58;;;;;;;;;;5074728;28;20020;-70
2023/09/12 03:07:56;;;;;;;46.13;22.00;;;;;;;;;;5073256;28;20079;-70
2023/09/12 03:10:22;;;;;;;44.92;21.77;;;;;;;;;;5069542;28;20051;-70
2023/09/12 03:12:47;;;;;;;52.20;24.55;;;;;;;;;;5075632;28;20040;-70
2023/09/12 03:15:12;;;;;;;50.80;24.23;;;;;;;;;;5074720;28;20028;-71
2023/09/12 03:17:37;;;;;;;47.25;21.05;;;;;;;;;;5074865;28;20052;-70
2023/09/12 03:20:07;;;;;;;49.20;22.20;;;;;;;;;;5056210;28;20067;-70
2023/09/12 03:22:37;;;;;;;45.85;23.33;;;;;;;;;;5056394;28;20020;-70
2023/09/12 03:25:02;;;;;;;47.83;21.10;;;;;;;;;;5057563;28;20056;-70
2023/09/12 03:27:28;;;;;;;42.08;18.45;;;;;;;;;;5065968;28;20025;-70
2023/09/12 03:29:53;;;;;;;70.22;26.88;;;;;;;;;;5055980;28;20546;-70
2023/09/12 03:32:18;;;;;;;48.75;22.67;;;;;;;;;;5058550;28;20036;-70
2023/09/12 03:34:43;;;;;;;49.13;24.15;;;;;;;;;;5073173;28;20021;-70
2023/09/12 03:37:09;;;;;;;57.15;26.42;;;;;;;;;;5057363;28;20478;-69
2023/09/12 03:39:34;;;;;;;47.78;23.45;;;;;;;;;;5056686;28;20025;-70
2023/09/12 03:41:59;;;;;;;51.63;24.05;;;;;;;;;;5057496;28;20079;-70
2023/09/12 03:44:24;;;;;;;50.40;23.20;;;;;;;;;;5055611;28;20131;-69
2023/09/12 03:46:50;;;;;;;56.20;24.27;;;;;;;;;;5054908;28;20040;-70
2023/09/12 03:49:15;;;;;;;51.70;24.75;;;;;;;;;;5053767;28;20067;-70
2023/09/12 03:51:40;;;;;;;53.67;23.60;;;;;;;;;;5062781;28;20535;-70
2023/09/12 03:54:06;;;;;;;43.75;20.30;;;;;;;;;;5054812;28;20021;-70
2023/09/12 03:56:31;;;;;;;39.78;17.67;;;;;;;;;;5053338;28;20403;-70
2023/09/12 03:58:58;;;;;;;50.35;23.65;;;;;;;;;;5054627;28;20024;-70
2023/09/12 04:01:23;;;;;;;39.08;17.58;;;;;;;;;;5055184;28;20377;-69
2023/09/12 04:03:49;;;;;;;49.72;23.63;;;;;;;;;;5054806;28;20017;-69
2023/09/12 04:06:14;;;;;;;53.95;22.67;;;;;;;;;;5054536;28;20024;-70
2023/09/12 04:08:39;;;;;;;50.88;24.80;;;;;;;;;;5058678;28;20078;-71
2023/09/12 04:11:04;;;;;;;57.80;24.88;;;;;;;;;;5054445;28;20394;-69
2023/09/12 04:13:30;;;;;;;59.50;26.90;;;;;;;;;;5053318;28;20031;-70
2023/09/12 04:15:55;;;;;;;55.90;23.42;;;;;;;;;;5052460;28;20033;-70
2023/09/12 04:18:21;;;;;;;58.72;26.55;;;;;;;;;;5059494;28;20099;-70
2023/09/12 04:20:46;;;;;;;60.50;26.02;;;;;;;;;;5053840;28;20020;-70
2023/09/12 04:23:11;;;;;;;58.97;29.05;;;;;;;;;;5054195;28;20020;-70
2023/09/12 04:25:37;;;;;;;54.45;25.60;;;;;;;;;;5059800;28;20059;-70
2023/09/12 04:28:02;;;;;;;60.80;24.98;;;;;;;;;;5054017;28;20371;-70
2023/09/12 04:30:27;;;;;;;51.67;25.17;;;;;;;;;;5060766;28;20025;-71
2023/09/12 04:32:53;;;;;;;67.95;29.85;;;;;;;;;;5073549;28;20036;-70
2023/09/12 04:35:19;;;;;;;67.20;28.98;;;;;;;;;;5073409;28;20029;-70
2023/09/12 04:37:48;;;;;;;72.00;27.88;;;;;;;;;;5074042;28;20031;-70
2023/09/12 04:40:13;;;;;;;62.05;28.10;;;;;;;;;;5073591;28;20083;-70
2023/09/12 04:42:39;;;;;;;61.08;26.10;;;;;;;;;;5070130;28;20028;-70
2023/09/12 04:45:04;;;;;;;56.25;24.98;;;;;;;;;;5064283;28;20020;-70
2023/09/12 04:47:29;;;;;;;54.75;24.02;;;;;;;;;;5071206;28;20048;-70
2023/09/12 04:49:55;;;;;;;55.53;26.17;;;;;;;;;;5062983;28;20028;-70
2023/09/12 04:52:20;;;;;;;45.78;22.00;;;;;;;;;;5067019;28;20063;-70
2023/09/12 04:54:45;;;;;;;53.60;24.23;;;;;;;;;;5072918;28;20039;-70
2023/09/12 04:57:11;;;;;;;42.65;20.38;;;;;;;;;;5055749;28;20027;-70
2023/09/12 04:59:37;;;;;;;52.58;23.40;;;;;;;;;;5071866;28;20073;-70
2023/09/12 05:02:03;;;;;;;47.45;22.25;;;;;;;;;;5050597;28;20157;-70
2023/09/12 05:04:28;;;;;;;62.72;29.75;;;;;;;;;;5052232;28;20029;-71
2023/09/12 05:06:53;;;;;;;55.42;25.50;;;;;;;;;;5061900;28;20032;-70
2023/09/12 05:09:19;;;;;;;57.20;25.60;;;;;;;;;;5073676;28;20024;-70
2023/09/12 05:11:44;;;;;;;66.25;28.42;;;;;;;;;;5051286;28;20120;-70
2023/09/12 05:14:09;;;;;;;60.80;24.88;;;;;;;;;;5063499;28;20031;-70
2023/09/12 05:16:34;;;;;;;60.38;26.25;;;;;;;;;;5071359;28;20021;-70
2023/09/12 05:19:00;;;;;;;60.17;27.27;;;;;;;;;;5061717;28;20024;-70
2023/09/12 05:21:25;;;;;;;59.70;27.50;;;;;;;;;;5053190;28;20025;-70
2023/09/12 05:23:50;;;;;;;77.72;30.33;;;;;;;;;;5053290;28;20053;-70
2023/09/12 05:26:16;;;;;;;62.83;27.92;;;;;;;;;;5071602;28;20478;-69
2023/09/12 05:28:41;;;;;;;73.60;29.60;;;;;;;;;;5073104;28;20021;-70
2023/09/12 05:31:06;;;;;;;59.78;27.08;;;;;;;;;;5071117;28;20091;-70
2023/09/12 05:33:31;;;;;;;54.47;24.30;;;;;;;;;;5071463;28;20017;-70
2023/09/12 05:35:57;;;;;;;57.72;24.02;;;;;;;;;;5071822;28;20075;-70
2023/09/12 05:38:23;;;;;;;62.17;27.75;;;;;;;;;;5073102;28;20028;-70
2023/09/12 05:40:49;;;;;;;59.88;25.92;;;;;;;;;;5071507;28;20017;-70
2023/09/12 05:43:15;;;;;;;54.30;22.77;;;;;;;;;;5072819;28;20048;-70
2023/09/12 05:45:41;;;;;;;59.47;25.75;;;;;;;;;;5072399;28;20110;-70
2023/09/12 05:48:06;;;;;;;65.32;28.20;;;;;;;;;;5071411;28;20084;-70
2023/09/12 05:50:31;;;;;;;60.97;26.80;;;;;;;;;;5067709;28;20036;-70
2023/09/12 05:52:56;;;;;;;55.45;24.42;;;;;;;;;;5070198;28;20058;-70
2023/09/12 05:55:22;;;;;;;61.28;26.98;;;;;;;;;;5072575;28;20030;-70
2023/09/12 05:57:52;;;;;;;64.75;27.67;;;;;;;;;;5059756;28;20028;-70
2023/09/12 06:00:17;;;;;;;66.93;28.02;;;;;;;;;;5052823;28;20075;-70
2023/09/12 06:02:43;;;;;;;62.22;28.73;;;;;;;;;;5056977;28;20020;-70
2023/09/12 06:05:08;;;;;;;59.08;26.88;;;;;;;;;;5067187;28;20117;-70
2023/09/12 06:07:34;;;;;;;60.03;26.08;;;;;;;;;;5051287;28;20024;-70
2023/09/12 06:09:59;;;;;;;61.08;23.63;;;;;;;;;;5052229;28;20371;-70
2023/09/12 06:12:24;;;;;;;67.85;29.45;;;;;;;;;;5051566;28;20020;-70
2023/09/12 06:14:51;;;;;;;57.38;25.90;;;;;;;;;;5052710;28;20025;-70
2023/09/12 06:17:16;;;;;;;51.75;23.02;;;;;;;;;;5052824;28;20029;-70
2023/09/12 06:19:41;;;;;;;62.67;28.13;;;;;;;;;;5050969;28;20078;-70
2023/09/12 06:22:07;;;;;;;52.95;21.15;;;;;;;;;;5052767;28;20364;-70
2023/09/12 06:24:32;;;;;;;39.63;20.10;;;;;;;;;;5052679;28;20076;-70
2023/09/12 06:26:57;;;;;;;55.65;24.50;;;;;;;;;;5052459;28;20025;-69
2023/09/12 06:29:22;;;;;;;45.08;19.80;;;;;;;;;;5051832;28;20021;-69
2023/09/12 06:31:48;;;;;;;46.95;20.00;;;;;;;;;;5052671;28;20029;-69
2023/09/12 06:34:13;;;;;;;46.53;22.83;;;;;;;;;;5052261;28;20052;-69
2023/09/12 06:36:39;;;;;;;64.18;26.13;;;;;;;;;;5052314;28;20025;-69
2023/09/12 06:39:05;;;;;;;58.30;23.38;;;;;;;;;;5054930;28;20021;-69
2023/09/12 06:41:30;;;;;;;58.22;23.88;;;;;;;;;;5055452;28;20475;-69
2023/09/12 06:43:57;;;;;;;54.13;24.40;;;;;;;;;;5055158;28;20107;-69
2023/09/12 06:46:23;;;;;;;55.65;27.00;;;;;;;;;;5056131;28;20036;-69
2023/09/12 06:48:50;;;;;;;55.15;24.88;;;;;;;;;;5055837;28;20025;-69
2023/09/12 06:51:15;;;;;;;53.95;25.45;;;;;;;;;;5054724;28;20078;-69
2023/09/12 06:53:41;;;;;;;49.42;23.02;;;;;;;;;;5055351;28;20021;-69
2023/09/12 06:56:06;;;;;;;51.30;22.58;;;;;;;;;;5055086;28;20470;-69
2023/09/12 06:58:32;;;;;;;54.10;23.80;;;;;;;;;;5055976;28;20383;-69
2023/09/12 07:01:07;;;;;;;54.63;24.83;;;;;;;;;;5055881;28;20021;-69
2023/09/12 07:03:33;;;;;;;54.25;25.05;;;;;;;;;;5054451;28;20036;-69
2023/09/12 07:05:59;;;;;;;45.15;22.10;;;;;;;;;;5055257;28;20021;-69
2023/09/12 07:08:24;;;;;;;45.95;23.42;;;;;;;;;;5055971;28;20090;-69
2023/09/12 07:10:50;;;;;;;53.70;25.55;;;;;;;;;;5055470;28;20032;-69
2023/09/12 07:13:15;;;;;;;48.42;23.77;;;;;;;;;;5055078;28;20025;-69
2023/09/12 07:15:40;;;;;;;63.53;27.95;;;;;;;;;;5055321;28;20108;-69
2023/09/12 07:18:06;;;;;;;53.33;25.42;;;;;;;;;;5055556;28;20107;-69
2023/09/12 07:20:32;;;;;;;50.22;24.83;;;;;;;;;;5073981;22;20005;-69
2023/09/12 07:22:57;;;;;;;33.67;16.17;;;;;;;;;;5094540;28;20082;-68
2023/09/12 07:25:23;;;;;;;30.00;14.30;;;;;;;;;;5095318;28;20540;-69
2023/09/12 07:27:49;;;;;;;28.63;14.15;;;;;;;;;;5094903;28;20027;-68
2023/09/12 07:30:15;;;;;;;23.90;12.70;;;;;;;;;;5076565;28;20030;-68
2023/09/12 07:32:40;;;;;;;21.13;12.07;;;;;;;;;;5094665;28;20062;-69
2023/09/12 07:35:05;;;;;;;21.55;10.60;;;;;;;;;;5079084;28;20031;-68
2023/09/12 07:37:31;;;;;;;16.15;8.77;;;;;;;;;;5080320;28;20024;-68
2023/09/12 07:39:56;;;;;;;18.90;11.15;;;;;;;;;;5080820;28;20593;-69
2023/09/12 07:42:22;;;;;;;18.80;11.23;;;;;;;;;;5081826;28;20016;-68
2023/09/12 07:44:48;;;;;;;17.90;10.55;;;;;;;;;;5076594;28;20028;-69
2023/09/12 07:47:14;;;;;;;18.52;8.85;;;;;;;;;;5094232;28;20119;-69
2023/09/12 07:49:39;;;;;;;15.10;9.63;;;;;;;;;;5075909;28;20024;-68
2023/09/12 07:52:05;;;;;;;13.65;9.35;;;;;;;;;;5075753;28;20022;-68
2023/09/12 07:54:30;;;;;;;16.20;9.48;;;;;;;;;;5094661;28;20028;-68
2023/09/12 07:56:56;;;;;;;17.55;9.75;;;;;;;;;;5094304;28;20035;-68
2023/09/12 07:59:22;;;;;;;21.92;9.95;;;;;;;;;;5088082;28;20021;-69
2023/09/12 08:01:47;;;;;;;20.27;10.73;;;;;;;;;;5055813;28;20024;-68
2023/09/12 08:04:14;;;;;;;16.30;9.70;;;;;;;;;;5077790;28;20036;-68
2023/09/12 08:06:39;;;;;;;17.92;8.90;;;;;;;;;;5077636;28;20028;-68
2023/09/12 08:09:05;;;;;;;13.55;8.88;;;;;;;;;;5093556;28;20020;-68
2023/09/12 08:11:30;;;;;;;16.92;8.95;;;;;;;;;;5093870;28;20486;-68
2023/09/12 08:13:55;;;;;;;15.23;9.77;;;;;;;;;;5088896;28;20032;-67
2023/09/12 08:16:20;;;;;;;20.58;9.57;;;;;;;;;;5072970;28;20497;-68
2023/09/12 08:18:46;;;;;;;18.73;11.10;;;;;;;;;;5074768;28;20063;-67
2023/09/12 08:21:11;;;;;;;19.23;11.23;;;;;;;;;;5080516;28;20024;-68
2023/09/12 08:23:36;;;;;;;21.80;11.88;;;;;;;;;;5073193;28;20055;-68
2023/09/12 08:26:02;;;;;;;18.70;10.68;;;;;;;;;;5085517;28;20040;-68
2023/09/12 08:28:27;;;;;;;23.13;10.15;;;;;;;;;;5092950;28;20062;-68
2023/09/12 08:30:53;;;;;;;21.77;11.18;;;;;;;;;;5093461;28;20028;-66
2023/09/12 08:33:18;;;;;;;20.10;10.90;;;;;;;;;;5093577;28;20443;-67
2023/09/12 08:35:43;;;;;;;17.63;11.38;;;;;;;;;;5093439;28;20031;-68
2023/09/12 08:38:09;;;;;;;24.98;11.75;;;;;;;;;;5093704;28;20024;-67
2023/09/12 08:40:35;;;;;;;16.02;10.63;;;;;;;;;;5093206;28;20053;-67
2023/09/12 08:43:00;;;;;;;19.40;10.25;;;;;;;;;;5091562;28;20077;-67
2023/09/12 08:45:26;;;;;;;20.85;10.30;;;;;;;;;;5083443;28;20028;-67
2023/09/12 08:47:53;;;;;;;16.75;10.95;;;;;;;;;;5076291;28;20036;-67
2023/09/12 08:50:20;;;;;;;16.90;10.95;;;;;;;;;;5093288;28;20427;-67
2023/09/12 08:52:46;;;;;;;19.42;11.50;;;;;;;;;;5075115;28;20043;-67
2023/09/12 08:55:12;;;;;;;19.65;10.30;;;;;;;;;;5074368;28;20020;-67
2023/09/12 08:57:39;;;;;;;22.85;10.70;;;;;;;;;;5090784;28;20028;-67
2023/09/12 09:00:24;;;;;;;20.92;12.80;;;;;;;;;;5065947;28;20075;-67
2023/09/12 09:02:51;;;;;;;21.48;12.13;;;;;;;;;;5092805;28;20024;-67
2023/09/12 09:05:17;;;;;;;17.00;11.85;;;;;;;;;;5074862;28;20038;-67
2023/09/12 09:07:43;;;;;;;23.85;12.35;;;;;;;;;;5074348;28;20028;-67
2023/09/12 09:10:15;;;;;;;16.48;11.00;;;;;;;;;;5092398;28;20024;-67
2023/09/12 09:12:42;;;;;;;21.23;11.82;;;;;;;;;;5092965;28;20024;-68
2023/09/12 09:15:27;;;;;;;17.50;9.63;;;;;;;;;;5093048;28;20443;-67
2023/09/12 09:17:53;;;;;;;20.27;10.55;;;;;;;;;;5091358;28;20047;-67
2023/09/12 09:20:27;;;;;;;17.67;10.88;;;;;;;;;;5077183;28;20032;-67
2023/09/12 09:22:56;;;;;;;17.35;11.15;;;;;;;;;;5054787;28;20114;-67
2023/09/12 09:25:22;;;;;;;14.48;10.07;;;;;;;;;;5072486;28;20027;-67
2023/09/12 09:27:47;;;;;;;21.50;10.77;;;;;;;;;;5072569;28;20024;-67
2023/09/12 09:30:12;;;;;;;24.20;12.40;;;;;;;;;;5077284;28;20024;-67
2023/09/12 09:32:38;;;;;;;19.65;11.82;;;;;;;;;;5092202;28;20048;-67
2023/09/12 09:35:03;;;;;;;19.15;10.50;;;;;;;;;;5092927;28;20042;-67
2023/09/12 09:37:29;;;;;;;16.17;9.55;;;;;;;;;;5092607;28;20508;-67
2023/09/12 10:21:33;;;;;;;14.35;8.38;;;;;;;;;;5076888;28;20338;-67
2023/09/12 10:24:00;;;;;;;18.67;8.32;;;;;;;;;;5069793;28;20409;-65
2023/09/12 10:26:25;;;;;;;12.93;7.63;;;;;;;;;;5054825;28;20396;-66
2023/09/12 10:28:51;;;;;;;17.10;7.60;;;;;;;;;;5049675;28;20104;-66
2023/09/12 10:31:16;;;;;;;15.00;7.13;;;;;;;;;;5049514;28;20048;-66
2023/09/12 10:33:44;;;;;;;12.82;7.53;;;;;;;;;;5039754;28;20090;-65
2023/09/12 10:43:19;;;;;;;13.02;7.32;;;;;;;;;;5130717;27;20331;-69
2023/09/12 10:45:45;;;;;;;14.82;7.88;;;;;;;;;;5112850;28;20035;-66
2023/09/12 10:48:11;;;;;;;16.48;7.50;;;;;;;;;;5130724;28;20046;-68
2023/09/12 10:50:38;;;;;;;11.40;6.82;;;;;;;;;;5113223;28;20111;-66
2023/09/12 10:53:11;;;;;;;17.90;8.60;;;;;;;;;;5128996;28;20030;-67
2023/09/12 10:55:37;;;;;;;21.27;10.13;;;;;;;;;;5130592;28;20023;-66
2023/09/12 10:58:04;;;;;;;15.48;8.77;;;;;;;;;;5130865;27;20488;-66
2023/09/12 11:00:32;;;;;;;19.52;9.80;;;;;;;;;;5130547;28;20023;-66
2023/09/12 11:02:58;;;;;;;17.67;9.98;;;;;;;;;;5130412;28;20023;-66
2023/09/12 11:05:27;;;;;;;16.38;10.50;;;;;;;;;;5129027;28;20408;-66
2023/09/12 11:07:59;;;;;;;18.10;9.80;;;;;;;;;;5130127;28;20481;-66
2023/09/12 11:10:25;;;;;;;18.63;10.48;;;;;;;;;;5130564;27;20031;-66
2023/09/12 11:12:55;;;;;;;24.08;9.95;;;;;;;;;;5130595;28;20114;-66
2023/09/12 11:15:22;;;;;;;18.42;9.77;;;;;;;;;;5130711;28;20102;-66
2023/09/12 11:17:48;;;;;;;16.38;10.18;;;;;;;;;;5130310;28;20045;-66
2023/09/12 11:20:15;;;;;;;17.83;9.38;;;;;;;;;;5130391;28;20112;-66
2023/09/12 11:22:47;;;;;;;20.60;9.30;;;;;;;;;;5130002;28;20024;-66
2023/09/12 11:25:19;;;;;;;17.15;9.95;;;;;;;;;;5129417;28;20023;-66
2023/09/12 11:27:52;;;;;;;15.60;8.63;;;;;;;;;;5130235;28;20039;-66
2023/09/12 11:30:18;;;;;;;13.27;8.90;;;;;;;;;;5130319;28;20023;-66
2023/09/12 11:32:45;;;;;;;18.73;10.15;;;;;;;;;;5128886;28;20066;-66
2023/09/12 11:35:11;;;;;;;16.20;9.45;;;;;;;;;;5129597;28;20027;-66
2023/09/12 11:37:37;;;;;;;18.73;8.90;;;;;;;;;;5130041;28;20028;-66
2023/09/12 11:40:16;;;;;;;19.92;9.85;;;;;;;;;;5129045;28;20023;-66
2023/09/12 11:42:42;;;;;;;17.33;9.73;;;;;;;;;;5129892;28;20114;-66
2023/09/12 11:45:08;;;;;;;17.25;9.13;;;;;;;;;;5128387;28;20051;-67
2023/09/12 11:47:34;;;;;;;19.65;9.07;;;;;;;;;;5128704;28;20438;-66
2023/09/12 11:49:59;;;;;;;18.70;9.85;;;;;;;;;;5129849;28;20019;-66
2023/09/12 11:52:24;;;;;;;16.05;8.18;;;;;;;;;;5129503;28;20054;-66
2023/09/12 11:54:50;;;;;;;19.98;9.40;;;;;;;;;;5115574;28;20020;-66
2023/09/12 11:57:15;;;;;;;17.55;9.65;;;;;;;;;;5115523;28;20020;-66
2023/09/12 11:59:45;;;;;;;17.20;9.48;;;;;;;;;;5115881;28;20027;-65
2023/09/12 12:02:11;;;;;;;16.95;9.05;;;;;;;;;;5114833;28;20026;-65
2023/09/12 12:04:37;;;;;;;16.15;8.90;;;;;;;;;;5116196;28;20385;-65
2023/09/12 12:07:06;;;;;;;19.98;9.35;;;;;;;;;;5114801;28;20096;-65
2023/09/12 12:09:31;;;;;;;16.75;7.38;;;;;;;;;;5115465;28;20027;-65
2023/09/12 12:12:03;;;;;;;16.75;8.63;;;;;;;;;;5115643;28;20098;-65
2023/09/12 12:14:33;;;;;;;19.30;10.30;;;;;;;;;;5114676;28;20108;-65
2023/09/12 12:17:05;;;;;;;18.92;9.68;;;;;;;;;;5115747;28;20027;-65
2023/09/12 12:19:30;;;;;;;21.10;9.80;;;;;;;;;;5115139;28;20020;-65
2023/09/12 12:21:56;;;;;;;17.65;9.60;;;;;;;;;;5115308;28;20472;-66
2023/09/12 12:24:21;;;;;;;19.10;9.35;;;;;;;;;;5115468;28;20065;-65
2023/09/12 12:26:46;;;;;;;23.40;10.18;;;;;;;;;;5115813;28;20022;-65
2023/09/12 12:29:13;;;;;;;17.50;9.15;;;;;;;;;;5115449;28;20065;-65
2023/09/12 12:31:38;;;;;;;15.10;9.07;;;;;;;;;;5114933;28;20107;-65
2023/09/12 12:34:05;;;;;;;18.33;10.55;;;;;;;;;;5114097;28;20055;-65
2023/09/12 12:36:30;;;;;;;19.90;11.15;;;;;;;;;;5107852;28;20434;-65
2023/09/12 12:38:55;;;;;;;19.25;10.85;;;;;;;;;;5095938;28;20034;-65
2023/09/12 12:41:26;;;;;;;20.65;10.18;;;;;;;;;;5096559;28;20119;-65
2023/09/12 12:43:52;;;;;;;17.55;9.73;;;;;;;;;;5099452;28;20046;-65
2023/09/12 12:46:19;;;;;;;19.10;10.30;;;;;;;;;;5098275;28;20351;-65
2023/09/12 12:48:45;;;;;;;16.45;8.27;;;;;;;;;;5099041;28;20020;-65
2023/09/12 12:51:16;;;;;;;14.30;7.75;;;;;;;;;;5094409;28;20027;-65
2023/09/12 12:53:44;;;;;;;20.48;9.98;;;;;;;;;;5110338;28;20049;-65
2023/09/12 12:56:26;;;;;;;15.27;8.48;;;;;;;;;;5114570;28;20027;-65
2023/09/12 12:58:53;;;;;;;13.02;7.55;;;;;;;;;;5114587;28;20031;-66
2023/09/12 13:01:19;;;;;;;14.38;8.20;;;;;;;;;;5114671;28;20046;-66
2023/09/12 13:03:44;;;;;;;13.55;8.07;;;;;;;;;;5114924;28;20473;-66
2023/09/12 13:06:14;;;;;;;18.42;9.35;;;;;;;;;;5113305;28;20470;-65
2023/09/12 13:08:43;;;;;;;18.27;8.77;;;;;;;;;;5114153;28;20492;-65
2023/09/12 13:11:13;;;;;;;18.63;8.55;;;;;;;;;;5102622;28;20394;-65
2023/09/12 13:13:39;;;;;;;19.35;8.65;;;;;;;;;;5112359;28;20019;-67
2023/09/12 13:16:05;;;;;;;13.82;8.48;;;;;;;;;;5107973;28;20062;-66
2023/09/12 13:18:34;;;;;;;16.30;9.25;;;;;;;;;;5101183;28;20023;-66
2023/09/12 13:20:59;;;;;;;18.17;8.45;;;;;;;;;;5102417;28;20031;-66
2023/09/12 13:23:25;;;;;;;13.90;8.25;;;;;;;;;;5103720;28;20024;-67
2023/09/12 13:25:51;;;;;;;13.57;8.50;;;;;;;;;;5110652;28;20027;-65
2023/09/12 13:28:16;;;;;;;11.45;8.52;;;;;;;;;;5113972;28;20553;-66
2023/09/12 13:30:41;;;;;;;18.30;9.10;;;;;;;;;;5113983;28;20027;-65
2023/09/12 13:33:07;;;;;;;18.75;9.80;;;;;;;;;;5113204;28;20043;-66
2023/09/12 13:35:32;;;;;;;14.55;8.75;;;;;;;;;;5114114;28;20023;-66
2023/09/12 13:37:57;;;;;;;13.95;9.35;;;;;;;;;;5113905;28;20487;-65
2023/09/12 13:40:23;;;;;;;18.58;9.23;;;;;;;;;;5113500;28;20480;-66
2023/09/12 13:42:48;;;;;;;14.93;8.55;;;;;;;;;;5113329;28;20028;-65
2023/09/12 13:45:13;;;;;;;13.77;9.48;;;;;;;;;;5113534;28;20019;-66
2023/09/12 13:47:39;;;;;;;17.05;9.82;;;;;;;;;;5113577;28;20103;-65
2023/09/12 13:50:05;;;;;;;17.42;9.30;;;;;;;;;;5112981;28;20028;-65
2023/09/12 13:52:30;;;;;;;22.27;9.82;;;;;;;;;;5113245;28;20016;-66
2023/09/12 13:54:56;;;;;;;17.08;9.65;;;;;;;;;;5113556;28;20023;-65
2023/09/12 13:57:21;;;;;;;17.98;9.40;;;;;;;;;;5113241;28;20051;-65
2023/09/12 13:59:46;;;;;;;20.75;11.05;;;;;;;;;;5113537;28;20035;-66
2023/09/12 14:02:12;;;;;;;17.73;10.68;;;;;;;;;;5112079;28;20031;-66
2023/09/12 14:04:37;;;;;;;15.68;9.48;;;;;;;;;;5113370;28;20027;-66
2023/09/12 14:07:02;;;;;;;18.13;9.32;;;;;;;;;;5105649;28;20494;-65
2023/09/12 14:09:28;;;;;;;17.58;9.20;;;;;;;;;;5101306;28;20038;-65
2023/09/12 14:11:53;;;;;;;16.45;8.75;;;;;;;;;;5093330;28;20027;-66
2023/09/12 14:14:19;;;;;;;16.00;8.98;;;;;;;;;;5096077;28;20032;-65
2023/09/12 14:16:45;;;;;;;17.08;9.32;;;;;;;;;;5113117;28;20473;-66
2023/09/12 14:19:10;;;;;;;14.93;8.48;;;;;;;;;;5112998;28;20396;-66
2023/09/12 14:21:36;;;;;;;14.55;8.27;;;;;;;;;;5113413;28;20020;-66
2023/09/12 14:24:01;;;;;;;17.35;9.02;;;;;;;;;;5113561;28;20361;-66
2023/09/12 14:26:26;;;;;;;21.17;10.05;;;;;;;;;;5112951;28;20050;-66
2023/09/12 14:28:51;;;;;;;14.85;9.23;;;;;;;;;;5113390;28;20019;-66
2023/09/12 14:31:17;;;;;;;17.95;10.30;;;;;;;;;;5112957;28;20036;-66
2023/09/12 14:33:42;;;;;;;19.13;10.13;;;;;;;;;;5112689;28;20016;-66
2023/09/12 14:36:09;;;;;;;24.67;11.18;;;;;;;;;;5112988;28;20430;-67
2023/09/12 14:38:34;;;;;;;19.33;11.65;;;;;;;;;;5112857;28;20084;-67
2023/09/12 14:41:00;;;;;;;24.88;12.45;;;;;;;;;;5112186;28;20066;-67
2023/09/12 14:43:28;;;;;;;27.17;11.57;;;;;;;;;;5112871;28;20393;-67
2023/09/12 14:45:54;;;;;;;22.10;11.90;;;;;;;;;;5112842;28;20023;-67
2023/09/12 14:48:19;;;;;;;24.20;12.98;;;;;;;;;;5109835;28;20024;-67
2023/09/12 14:50:48;;;;;;;29.95;13.50;;;;;;;;;;5092710;28;20024;-66
2023/09/12 14:53:14;;;;;;;28.17;13.40;;;;;;;;;;5092617;28;20016;-66
2023/09/12 14:55:39;;;;;;;22.45;11.80;;;;;;;;;;5101174;28;20073;-66
2023/09/12 14:58:04;;;;;;;22.35;11.60;;;;;;;;;;5091720;28;20024;-66
2023/09/12 15:00:30;;;;;;;21.38;12.38;;;;;;;;;;5093699;28;20043;-65
2023/09/12 15:02:55;;;;;;;23.27;11.52;;;;;;;;;;5113105;28;20024;-66